Time;durP1;ratioP1;P1;durP2;ratioP2;P2;SDS_P1;SDS_P2;PMS_P1;PMS_P2;Temp;Humidity;BMP_temperature;BMP_pressure;BME280_temperature;BME280_humidity;BME280_pressure;Samples;Min_cycle;Max_cycle;Signal;HPM_P1;HPM_P2
2022/11/30 00:00:05;;;;;;;12.20;4.88;;;7.70;99.90;;;;;;5014758;28;20497;-76
2022/11/30 00:02:30;;;;;;;8.73;4.27;;;7.80;99.90;;;;;;5014737;28;20033;-76
2022/11/30 00:04:56;;;;;;;10.82;4.60;;;7.80;99.90;;;;;;5015967;28;20264;-76
2022/11/30 00:07:21;;;;;;;10.90;4.35;;;7.80;99.90;;;;;;5016188;28;20033;-76
2022/11/30 00:09:47;;;;;;;11.68;4.53;;;7.80;99.90;;;;;;5016361;28;20029;-75
2022/11/30 00:12:12;;;;;;;8.25;4.50;;;7.80;99.90;;;;;;5015611;28;20037;-76
2022/11/30 00:14:38;;;;;;;9.68;4.72;;;7.80;99.90;;;;;;5016144;28;20026;-76
2022/11/30 00:17:04;;;;;;;12.50;4.70;;;7.80;99.90;;;;;;5014531;28;20038;-76
2022/11/30 00:19:29;;;;;;;10.18;4.97;;;7.80;99.90;;;;;;5014593;28;20057;-76
2022/11/30 00:21:55;;;;;;;16.48;5.65;;;7.80;99.90;;;;;;5015625;28;20099;-76
2022/11/30 00:24:20;;;;;;;12.27;6.18;;;7.80;99.90;;;;;;5014135;28;20018;-77
2022/11/30 00:26:46;;;;;;;12.25;5.07;;;7.80;99.90;;;;;;5014025;28;20049;-76
2022/11/30 00:29:12;;;;;;;12.10;5.00;;;7.80;99.90;;;;;;5015354;28;20018;-76
2022/11/30 00:31:37;;;;;;;13.93;4.80;;;7.80;99.90;;;;;;5015774;28;20507;-76
2022/11/30 00:34:03;;;;;;;14.23;5.47;;;7.80;99.90;;;;;;5015376;28;20077;-76
2022/11/30 00:36:28;;;;;;;12.52;5.18;;;7.80;99.90;;;;;;5014248;28;20017;-76
2022/11/30 00:38:54;;;;;;;9.18;5.07;;;7.80;99.90;;;;;;5014039;28;20021;-77
2022/11/30 00:41:20;;;;;;;12.88;5.65;;;7.80;99.90;;;;;;5015176;28;20026;-76
2022/11/30 00:43:46;;;;;;;12.73;5.30;;;7.80;99.90;;;;;;5015292;28;20477;-77
2022/11/30 00:46:12;;;;;;;10.30;4.97;;;7.80;99.90;;;;;;5013712;28;20033;-76
2022/11/30 00:48:38;;;;;;;11.48;5.80;;;7.80;99.90;;;;;;5031501;22;20079;-75
2022/11/30 00:51:05;;;;;;;11.05;5.45;;;7.80;99.90;;;;;;5055005;28;20025;-75
2022/11/30 00:53:31;;;;;;;14.18;5.75;;;7.80;99.90;;;;;;5054666;28;20021;-75
2022/11/30 00:55:56;;;;;;;14.10;4.90;;;7.80;99.90;;;;;;5054815;28;20024;-76
2022/11/30 00:58:22;;;;;;;10.38;5.20;;;7.80;99.90;;;;;;5036041;28;20082;-75
2022/11/30 01:00:47;;;;;;;20.88;5.38;;;7.80;99.90;;;;;;5037231;28;20021;-75
2022/11/30 01:03:14;;;;;;;14.70;6.10;;;7.70;99.90;;;;;;5054689;28;20028;-75
2022/11/30 01:05:40;;;;;;;13.65;6.80;;;7.80;99.90;;;;;;5054676;28;20380;-76
2022/11/30 01:08:08;;;;;;;11.70;4.95;;;7.70;99.90;;;;;;5055252;28;20059;-75
2022/11/30 01:10:35;;;;;;;8.50;4.35;;;7.70;99.90;;;;;;5036762;28;20021;-75
2022/11/30 01:13:01;;;;;;;15.48;5.90;;;7.70;99.90;;;;;;5036594;28;20116;-76
2022/11/30 01:15:26;;;;;;;14.70;5.60;;;7.70;99.90;;;;;;5054304;28;20092;-76
2022/11/30 01:17:52;;;;;;;12.80;5.05;;;7.70;99.90;;;;;;5054362;28;20446;-76
2022/11/30 01:20:18;;;;;;;14.77;5.80;;;7.70;99.90;;;;;;5054372;28;20040;-76
2022/11/30 01:22:43;;;;;;;15.73;6.20;;;7.70;99.90;;;;;;5054402;28;20048;-76
2022/11/30 01:25:09;;;;;;;14.07;6.25;;;7.70;99.90;;;;;;5054649;28;20075;-76
2022/11/30 01:27:35;;;;;;;9.80;4.45;;;7.70;99.90;;;;;;5053910;28;20475;-76
2022/11/30 01:30:00;;;;;;;16.17;5.65;;;7.70;99.90;;;;;;5054145;28;20060;-76
2022/11/30 01:32:27;;;;;;;12.77;6.50;;;7.70;99.90;;;;;;5036151;28;20025;-75
2022/11/30 01:34:52;;;;;;;12.98;6.15;;;7.80;99.90;;;;;;5053947;28;20028;-76
2022/11/30 01:37:18;;;;;;;11.30;5.53;;;7.80;99.90;;;;;;5035946;28;20387;-75
2022/11/30 01:39:44;;;;;;;16.70;5.85;;;7.80;99.90;;;;;;5036199;28;20017;-75
2022/11/30 01:42:15;;;;;;;15.65;6.22;;;7.80;99.90;;;;;;5036151;28;20075;-75
2022/11/30 01:44:56;;;;;;;17.83;6.72;;;7.80;99.90;;;;;;5053831;28;20025;-75
2022/11/30 01:47:38;;;;;;;13.95;6.75;;;7.80;99.90;;;;;;5053940;28;20424;-75
2022/11/30 01:50:09;;;;;;;11.65;5.95;;;7.80;99.90;;;;;;5053694;28;20104;-76
2022/11/30 01:52:42;;;;;;;22.13;6.07;;;7.80;99.90;;;;;;5035807;28;20391;-75
2022/11/30 01:55:17;;;;;;;14.32;6.18;;;7.80;99.90;;;;;;5035774;28;20044;-76
2022/11/30 01:57:47;;;;;;;13.90;5.72;;;7.70;99.90;;;;;;5053497;28;20031;-76
2022/11/30 02:00:15;;;;;;;11.43;5.95;;;7.80;99.90;;;;;;5053955;28;20025;-75
2022/11/30 02:03:01;;;;;;;18.15;5.68;;;7.80;99.90;;;;;;5053517;28;20036;-76
2022/11/30 02:05:28;;;;;;;16.05;6.82;;;7.80;99.90;;;;;;5053356;28;20064;-75
2022/11/30 02:07:54;;;;;;;13.00;6.32;;;7.80;99.90;;;;;;5035546;28;20028;-75
2022/11/30 02:10:30;;;;;;;14.18;6.28;;;7.80;99.90;;;;;;5053173;28;20414;-75
2022/11/30 02:13:18;;;;;;;12.35;6.25;;;7.70;99.90;;;;;;5035449;28;20028;-76
2022/11/30 02:16:18;;;;;;;11.70;6.15;;;7.70;99.90;;;;;;5035292;28;20021;-75
2022/11/30 02:18:49;;;;;;;13.80;5.70;;;7.70;99.90;;;;;;5053940;28;20103;-75
2022/11/30 02:21:44;;;;;;;17.48;5.75;;;7.80;99.90;;;;;;5053377;28;20095;-75
2022/11/30 02:24:47;;;;;;;17.15;6.45;;;7.70;99.90;;;;;;5053811;28;20025;-75
2022/11/30 02:27:48;;;;;;;13.77;5.90;;;7.70;99.90;;;;;;5035364;28;20488;-75
2022/11/30 02:30:17;;;;;;;12.95;5.47;;;7.70;99.90;;;;;;5027597;28;20033;-76
2022/11/30 02:32:49;;;;;;;11.75;5.25;;;7.70;99.90;;;;;;5053073;28;20352;-76
2022/11/30 02:35:18;;;;;;;12.77;5.30;;;7.70;99.90;;;;;;5052961;28;20036;-76
2022/11/30 02:37:44;;;;;;;13.45;6.05;;;7.70;99.90;;;;;;5035319;28;20021;-76
2022/11/30 02:40:13;;;;;;;13.65;6.30;;;7.70;99.90;;;;;;5035367;28;20375;-76
2022/11/30 02:42:39;;;;;;;14.38;6.13;;;7.70;99.90;;;;;;5052799;28;20113;-76
2022/11/30 02:45:07;;;;;;;15.07;5.65;;;7.70;99.90;;;;;;5052878;28;20065;-76
2022/11/30 02:48:01;;;;;;;19.33;5.78;;;7.70;99.90;;;;;;5034878;28;20025;-76
2022/11/30 02:50:31;;;;;;;12.80;5.32;;;7.60;99.90;;;;;;5052967;28;20029;-76
2022/11/30 02:52:57;;;;;;;11.25;5.72;;;7.60;99.90;;;;;;5035125;28;20017;-75
2022/11/30 02:55:23;;;;;;;11.57;5.38;;;7.60;99.90;;;;;;5052887;28;20079;-75
2022/11/30 02:57:48;;;;;;;12.90;5.88;;;7.60;99.90;;;;;;5052861;28;20033;-75
2022/11/30 03:00:15;;;;;;;15.63;5.38;;;7.60;99.90;;;;;;5034858;28;20099;-76
2022/11/30 03:02:41;;;;;;;12.02;5.45;;;7.60;99.90;;;;;;5053270;28;20025;-76
2022/11/30 03:05:08;;;;;;;13.77;5.88;;;7.60;99.90;;;;;;5053071;28;20025;-75
2022/11/30 03:07:33;;;;;;;15.43;5.95;;;7.60;99.90;;;;;;5034771;28;20025;-75
2022/11/30 03:10:03;;;;;;;13.77;5.93;;;7.60;99.90;;;;;;5053240;28;20033;-76
2022/11/30 03:12:28;;;;;;;12.48;5.18;;;7.50;99.90;;;;;;5052661;28;20021;-76
2022/11/30 03:14:54;;;;;;;15.38;6.05;;;7.60;99.90;;;;;;5052632;28;20077;-75
2022/11/30 03:17:19;;;;;;;14.82;5.95;;;7.60;99.90;;;;;;5034880;28;20017;-75
2022/11/30 03:19:45;;;;;;;13.73;6.28;;;7.60;99.90;;;;;;5034892;28;20021;-76
2022/11/30 03:22:11;;;;;;;12.05;5.20;;;7.60;99.90;;;;;;5055769;28;20053;-75
2022/11/30 03:24:36;;;;;;;14.00;6.65;;;7.60;99.90;;;;;;5056085;28;20049;-75
2022/11/30 03:27:02;;;;;;;12.00;5.63;;;7.50;99.90;;;;;;5056163;28;20021;-75
2022/11/30 03:29:27;;;;;;;18.60;6.90;;;7.60;99.90;;;;;;5038143;28;20559;-75
2022/11/30 03:31:53;;;;;;;13.55;6.03;;;7.60;99.90;;;;;;5056110;28;20025;-75
2022/11/30 03:34:18;;;;;;;11.75;5.90;;;7.60;99.90;;;;;;5056101;28;20553;-75
2022/11/30 03:36:44;;;;;;;14.43;6.60;;;7.60;99.90;;;;;;5055913;28;20056;-75
2022/11/30 03:39:10;;;;;;;13.07;6.18;;;7.60;99.90;;;;;;5055899;28;20023;-75
2022/11/30 03:41:35;;;;;;;12.57;6.40;;;7.60;99.90;;;;;;5056141;28;20052;-75
2022/11/30 03:44:01;;;;;;;14.13;5.88;;;7.60;99.90;;;;;;5056324;28;20094;-75
2022/11/30 03:46:27;;;;;;;11.85;5.97;;;7.60;99.90;;;;;;5037922;28;20123;-75
2022/11/30 03:48:53;;;;;;;17.00;5.68;;;7.60;99.90;;;;;;5055819;28;20021;-75
2022/11/30 03:51:19;;;;;;;18.17;6.60;;;7.60;99.90;;;;;;5055588;28;20476;-75
2022/11/30 03:53:44;;;;;;;14.68;6.93;;;7.60;99.90;;;;;;5037958;28;20020;-76
2022/11/30 03:56:10;;;;;;;14.90;6.30;;;7.60;99.90;;;;;;5056157;28;20082;-75
2022/11/30 03:58:36;;;;;;;16.77;7.35;;;7.50;99.90;;;;;;5055532;28;20031;-75
2022/11/30 04:01:02;;;;;;;17.42;7.28;;;7.50;99.90;;;;;;5055897;28;20107;-75
2022/11/30 04:03:28;;;;;;;18.63;7.22;;;7.50;99.90;;;;;;5055401;28;20528;-75
2022/11/30 04:05:54;;;;;;;14.77;6.97;;;7.50;99.90;;;;;;5037532;28;20112;-75
2022/11/30 04:08:20;;;;;;;14.80;7.30;;;7.50;99.90;;;;;;5055273;28;20064;-75
2022/11/30 04:10:46;;;;;;;17.40;7.32;;;7.50;99.90;;;;;;5056264;28;20032;-75
2022/11/30 04:13:12;;;;;;;14.10;6.15;;;7.50;99.90;;;;;;5055334;28;20052;-75
2022/11/30 04:15:38;;;;;;;16.80;6.32;;;7.40;99.90;;;;;;5055159;28;20055;-76
2022/11/30 04:18:04;;;;;;;14.10;6.32;;;7.50;99.90;;;;;;5055226;28;20029;-76
2022/11/30 04:20:30;;;;;;;14.93;7.18;;;7.50;99.90;;;;;;5055752;28;20032;-76
2022/11/30 04:22:56;;;;;;;16.15;6.18;;;7.50;99.90;;;;;;5055234;28;20044;-75
2022/11/30 04:25:22;;;;;;;17.17;7.10;;;7.50;99.90;;;;;;5037159;28;20031;-75
2022/11/30 04:27:48;;;;;;;15.90;6.43;;;7.50;99.90;;;;;;5054980;28;20107;-75
2022/11/30 04:30:14;;;;;;;17.23;7.07;;;7.40;99.90;;;;;;5037148;28;20049;-75
2022/11/30 04:32:40;;;;;;;16.45;6.82;;;7.40;99.90;;;;;;5054905;28;20025;-75
2022/11/30 04:35:07;;;;;;;14.63;6.82;;;7.40;99.90;;;;;;5054700;28;20021;-75
2022/11/30 04:37:32;;;;;;;15.35;6.93;;;7.40;99.90;;;;;;5036981;28;20137;-75
2022/11/30 04:39:58;;;;;;;17.00;7.40;;;7.40;99.90;;;;;;5036859;28;20067;-75
2022/11/30 04:42:23;;;;;;;13.05;6.13;;;7.40;99.90;;;;;;5036951;28;20385;-75
2022/11/30 04:44:49;;;;;;;15.20;7.15;;;7.40;99.90;;;;;;5054908;28;20506;-75
2022/11/30 04:47:14;;;;;;;13.20;6.68;;;7.40;99.90;;;;;;5036786;28;20036;-75
2022/11/30 04:49:40;;;;;;;12.15;6.13;;;7.40;99.90;;;;;;5054470;28;20029;-75
2022/11/30 04:52:05;;;;;;;15.65;6.90;;;7.40;99.90;;;;;;5054563;28;20028;-75
2022/11/30 04:54:32;;;;;;;14.88;6.03;;;7.40;99.90;;;;;;5054549;28;20088;-76
2022/11/30 04:56:57;;;;;;;15.30;6.57;;;7.40;99.90;;;;;;5054257;28;20029;-75
2022/11/30 04:59:23;;;;;;;17.67;6.47;;;7.40;99.90;;;;;;5036707;28;20372;-75
2022/11/30 05:01:48;;;;;;;15.90;6.65;;;7.30;99.90;;;;;;5054390;28;20074;-75
2022/11/30 05:04:14;;;;;;;16.05;6.43;;;7.30;99.90;;;;;;5036452;28;20036;-75
2022/11/30 05:06:40;;;;;;;14.45;6.35;;;7.30;99.90;;;;;;5036326;28;20035;-75
2022/11/30 05:09:05;;;;;;;16.63;6.88;;;7.30;99.90;;;;;;5054689;28;20021;-75
2022/11/30 05:11:31;;;;;;;15.57;7.13;;;7.60;99.90;;;;;;5036330;28;20499;-75
2022/11/30 05:13:56;;;;;;;13.38;6.63;;;7.40;99.90;;;;;;5054708;28;20021;-75
2022/11/30 05:16:22;;;;;;;14.63;6.35;;;7.30;99.90;;;;;;5054459;28;20044;-75
2022/11/30 05:18:47;;;;;;;11.25;5.63;;;7.30;99.90;;;;;;5054194;28;20032;-75
2022/11/30 05:21:13;;;;;;;17.88;7.22;;;7.30;99.90;;;;;;5036282;28;20028;-75
2022/11/30 05:23:38;;;;;;;14.95;7.22;;;7.20;99.90;;;;;;5036192;28;20017;-75
2022/11/30 05:26:04;;;;;;;13.55;6.90;;;7.20;99.90;;;;;;5035998;28;20036;-75
2022/11/30 05:28:29;;;;;;;15.63;6.15;;;7.20;99.90;;;;;;5053872;28;20025;-75
2022/11/30 05:31:00;;;;;;;15.40;5.97;;;7.20;99.90;;;;;;5036084;28;20087;-75
2022/11/30 05:33:26;;;;;;;16.15;5.90;;;7.20;99.90;;;;;;5036061;28;20044;-75
2022/11/30 05:35:51;;;;;;;16.02;6.28;;;7.20;99.90;;;;;;5053798;28;20040;-75
2022/11/30 05:38:17;;;;;;;18.70;7.43;;;7.20;99.90;;;;;;5035925;28;20017;-75
2022/11/30 05:40:42;;;;;;;15.65;7.18;;;7.20;99.90;;;;;;5035961;28;20075;-75
2022/11/30 05:43:09;;;;;;;16.30;7.18;;;7.10;99.90;;;;;;5035430;28;20036;-75
2022/11/30 05:45:34;;;;;;;14.40;7.50;;;7.20;99.90;;;;;;5053732;28;20108;-75
2022/11/30 05:48:00;;;;;;;12.77;6.35;;;7.10;99.90;;;;;;5035569;28;20120;-76
2022/11/30 05:50:26;;;;;;;14.32;6.75;;;7.10;99.90;;;;;;5035679;28;20029;-76
2022/11/30 05:52:55;;;;;;;13.98;5.97;;;7.00;99.90;;;;;;5053561;28;20025;-76
2022/11/30 05:55:21;;;;;;;16.58;6.95;;;7.00;99.90;;;;;;5035600;28;20017;-74
2022/11/30 05:57:46;;;;;;;16.98;7.25;;;7.00;99.90;;;;;;5053588;28;20108;-74
2022/11/30 06:00:13;;;;;;;14.60;6.43;;;6.90;99.90;;;;;;5053624;28;20056;-74
2022/11/30 06:02:38;;;;;;;21.08;7.03;;;6.90;99.90;;;;;;5053582;28;20039;-74
2022/11/30 06:05:04;;;;;;;43.20;7.45;;;6.90;99.90;;;;;;5035804;28;20396;-74
2022/11/30 06:07:30;;;;;;;15.38;6.25;;;6.80;99.90;;;;;;5053190;28;20403;-74
2022/11/30 06:09:56;;;;;;;17.50;7.00;;;6.80;99.90;;;;;;5053557;28;20032;-74
2022/11/30 06:12:21;;;;;;;13.73;5.78;;;6.80;99.90;;;;;;5035612;28;20112;-74
2022/11/30 06:14:49;;;;;;;14.30;6.30;;;6.80;99.90;;;;;;5053465;28;20108;-74
2022/11/30 06:17:15;;;;;;;15.82;6.53;;;6.80;99.90;;;;;;5053372;28;20023;-74
2022/11/30 06:19:40;;;;;;;14.63;6.28;;;6.70;99.90;;;;;;5035431;28;20108;-75
2022/11/30 06:22:06;;;;;;;12.40;6.15;;;8.20;99.90;;;;;;5035682;28;20013;-75
2022/11/30 06:24:31;;;;;;;16.50;6.57;;;6.80;99.90;;;;;;5053382;28;20092;-75
2022/11/30 06:26:57;;;;;;;13.45;6.07;;;6.80;99.90;;;;;;5053829;28;20124;-75
2022/11/30 06:29:23;;;;;;;14.98;6.80;;;6.80;99.90;;;;;;5035551;28;20116;-75
2022/11/30 06:31:48;;;;;;;17.50;7.07;;;6.80;99.90;;;;;;5053449;28;20128;-75
2022/11/30 06:34:14;;;;;;;17.88;7.65;;;6.80;99.90;;;;;;5053414;28;20021;-75
2022/11/30 06:36:39;;;;;;;15.70;6.53;;;6.80;99.90;;;;;;5035416;28;20052;-75
2022/11/30 06:39:05;;;;;;;13.95;6.80;;;6.70;99.90;;;;;;5053391;28;20056;-75
2022/11/30 06:41:31;;;;;;;14.13;7.00;;;6.70;99.90;;;;;;5053670;28;20021;-75
2022/11/30 06:43:56;;;;;;;17.58;7.65;;;6.60;99.90;;;;;;5053927;28;20025;-75
2022/11/30 06:46:22;;;;;;;17.00;7.55;;;6.70;99.90;;;;;;5053002;28;20070;-75
2022/11/30 06:48:49;;;;;;;17.38;7.50;;;6.70;99.90;;;;;;5052830;28;20029;-75
2022/11/30 06:51:15;;;;;;;15.73;7.80;;;6.90;99.90;;;;;;5035066;28;20074;-75
2022/11/30 06:53:41;;;;;;;18.42;7.10;;;6.60;99.90;;;;;;5053606;28;20056;-75
2022/11/30 06:56:08;;;;;;;16.70;7.38;;;6.60;99.90;;;;;;5054953;28;20105;-75
2022/11/30 06:58:34;;;;;;;19.48;8.15;;;6.60;99.90;;;;;;5038911;28;20029;-75
2022/11/30 07:00:59;;;;;;;18.42;8.50;;;6.60;99.90;;;;;;5038919;28;20051;-75
2022/11/30 07:03:25;;;;;;;24.75;9.40;;;6.50;99.90;;;;;;5039113;28;20025;-75
2022/11/30 07:05:51;;;;;;;21.00;7.95;;;6.60;99.90;;;;;;5038748;28;20052;-75
2022/11/30 07:08:17;;;;;;;17.17;7.03;;;6.60;99.90;;;;;;5056708;28;20096;-75
2022/11/30 07:10:44;;;;;;;18.63;7.25;;;6.50;99.90;;;;;;5056584;28;20032;-75
2022/11/30 07:13:16;;;;;;;18.95;7.13;;;6.50;99.90;;;;;;5038731;28;20063;-75
2022/11/30 07:15:42;;;;;;;18.27;7.38;;;6.40;99.90;;;;;;5056428;28;20079;-75
2022/11/30 07:18:08;;;;;;;19.27;8.20;;;6.50;99.90;;;;;;5038440;28;20032;-75
2022/11/30 07:20:35;;;;;;;18.25;7.72;;;6.50;99.90;;;;;;5038495;28;20025;-75
2022/11/30 07:26:05;;;;;;;18.27;7.60;;;6.50;99.90;;;;;;5038310;28;20029;-75
2022/11/30 07:26:08;;;;;;;18.52;8.02;;;6.50;99.90;;;;;;5056057;28;20083;-75
2022/11/30 07:28:57;;;;;;;16.20;7.60;;;6.50;99.90;;;;;;5056889;28;20021;-75
2022/11/30 07:31:33;;;;;;;15.50;6.45;;;6.50;99.90;;;;;;5056112;28;20021;-75
2022/11/30 07:34:03;;;;;;;20.38;8.65;;;6.50;99.90;;;;;;5038117;28;20019;-75
2022/11/30 07:36:30;;;;;;;18.05;7.35;;;6.50;99.90;;;;;;5055988;28;20025;-75
2022/11/30 07:38:56;;;;;;;20.85;7.88;;;6.50;99.90;;;;;;5056181;28;20017;-75
2022/11/30 07:41:22;;;;;;;18.98;7.50;;;6.50;99.90;;;;;;5038163;28;20074;-74
2022/11/30 07:43:48;;;;;;;17.90;6.57;;;6.50;99.90;;;;;;5038020;28;20163;-75
2022/11/30 07:46:15;;;;;;;16.17;6.97;;;6.50;99.90;;;;;;5055757;28;20029;-75
2022/11/30 07:48:41;;;;;;;16.30;6.78;;;6.50;99.90;;;;;;5037608;28;20078;-75
2022/11/30 07:51:11;;;;;;;47.53;7.47;;;6.50;99.90;;;;;;5037910;28;20060;-74
2022/11/30 07:53:37;;;;;;;16.73;7.00;;;6.40;99.90;;;;;;5055793;28;20058;-75
2022/11/30 07:56:12;;;;;;;15.18;6.82;;;6.40;99.90;;;;;;5038033;28;20020;-75
2022/11/30 07:58:38;;;;;;;15.02;7.05;;;6.30;99.90;;;;;;5037897;28;20017;-75
2022/11/30 08:01:20;;;;;;;16.55;7.88;;;6.30;99.90;;;;;;5055595;28;20025;-75
2022/11/30 08:03:46;;;;;;;18.02;7.80;;;6.30;99.90;;;;;;5056199;28;20025;-74
2022/11/30 08:06:18;;;;;;;18.05;7.35;;;6.30;99.90;;;;;;5055017;28;20083;-74
2022/11/30 08:08:45;;;;;;;16.67;7.78;;;6.40;99.90;;;;;;5055520;28;20067;-74
2022/11/30 08:11:14;;;;;;;19.08;7.80;;;6.40;99.90;;;;;;5055488;28;20084;-74
2022/11/30 08:13:40;;;;;;;16.42;6.85;;;6.50;99.90;;;;;;5055497;28;20025;-74
2022/11/30 08:16:08;;;;;;;19.65;7.57;;;6.50;99.90;;;;;;5055101;28;20024;-74
2022/11/30 08:18:34;;;;;;;20.67;9.10;;;6.60;99.90;;;;;;5037432;28;20028;-74
2022/11/30 08:21:02;;;;;;;21.80;8.38;;;6.70;99.90;;;;;;5055436;28;20446;-73
2022/11/30 08:23:29;;;;;;;18.63;7.53;;;6.80;99.90;;;;;;5055299;28;20021;-74
2022/11/30 08:25:55;;;;;;;24.98;7.55;;;6.80;99.90;;;;;;5037245;28;20503;-74
2022/11/30 08:28:21;;;;;;;19.30;8.30;;;6.90;99.90;;;;;;5055008;28;20060;-74
2022/11/30 08:30:46;;;;;;;16.42;8.13;;;6.90;99.90;;;;;;5055102;28;20014;-74
2022/11/30 08:33:13;;;;;;;17.40;7.60;;;7.00;99.90;;;;;;5055028;28;20021;-74
2022/11/30 08:35:38;;;;;;;19.35;9.05;;;7.00;99.90;;;;;;5037369;28;20158;-73
2022/11/30 08:38:04;;;;;;;16.52;7.78;;;7.10;99.90;;;;;;5055146;28;20052;-73
2022/11/30 08:40:29;;;;;;;20.40;8.90;;;7.10;99.90;;;;;;5037323;28;20025;-73
2022/11/30 08:42:57;;;;;;;22.15;8.63;;;7.20;99.90;;;;;;5055027;28;20562;-74
2022/11/30 08:45:23;;;;;;;17.27;8.10;;;7.20;99.90;;;;;;5037056;28;20060;-74
2022/11/30 08:47:48;;;;;;;19.00;9.05;;;7.30;99.90;;;;;;5055010;28;20125;-74
2022/11/30 08:50:14;;;;;;;27.33;8.93;;;7.30;99.90;;;;;;5054989;28;20033;-74
2022/11/30 08:52:40;;;;;;;20.27;9.18;;;7.30;99.90;;;;;;5037115;28;20035;-74
2022/11/30 08:55:06;;;;;;;19.05;8.73;;;7.30;99.90;;;;;;5036968;28;20024;-74
2022/11/30 08:57:32;;;;;;;21.88;8.65;;;7.40;99.90;;;;;;5036913;28;20025;-73
2022/11/30 08:59:58;;;;;;;18.05;7.57;;;7.40;99.90;;;;;;5055085;28;20024;-73
2022/11/30 09:02:23;;;;;;;18.48;8.52;;;7.50;99.90;;;;;;5036708;28;20017;-74
2022/11/30 09:04:50;;;;;;;23.85;8.77;;;7.50;99.90;;;;;;5036474;28;20395;-74
2022/11/30 09:07:16;;;;;;;21.65;8.98;;;7.50;99.90;;;;;;5054704;28;20468;-75
2022/11/30 09:09:42;;;;;;;16.63;7.60;;;7.50;99.90;;;;;;5037943;28;20399;-75
2022/11/30 09:12:07;;;;;;;20.13;8.07;;;7.60;99.90;;;;;;5037597;28;20017;-75
2022/11/30 09:14:33;;;;;;;21.95;9.57;;;7.60;99.90;;;;;;5036880;28;20472;-73
2022/11/30 09:16:59;;;;;;;19.38;8.23;;;7.70;99.90;;;;;;5036517;28;20028;-73
2022/11/30 09:19:24;;;;;;;21.35;9.52;;;7.70;99.90;;;;;;5036163;28;20029;-73
2022/11/30 09:21:52;;;;;;;16.85;8.80;;;7.70;99.90;;;;;;5054321;28;20025;-73
2022/11/30 09:24:19;;;;;;;17.90;8.65;;;7.70;99.90;;;;;;5055031;28;20036;-73
2022/11/30 09:26:45;;;;;;;20.95;9.32;;;7.70;99.90;;;;;;5037021;28;20037;-73
2022/11/30 09:29:10;;;;;;;18.52;8.70;;;7.80;99.90;;;;;;5037238;28;20091;-73
2022/11/30 09:31:36;;;;;;;22.30;8.20;;;7.90;99.90;;;;;;5036887;28;20017;-73
2022/11/30 09:34:04;;;;;;;20.73;9.70;;;8.00;99.90;;;;;;5054769;28;20013;-73
2022/11/30 09:36:31;;;;;;;20.88;9.30;;;8.00;99.90;;;;;;5037282;28;20040;-73
2022/11/30 09:38:57;;;;;;;20.58;8.93;;;10.10;99.90;;;;;;5037293;28;20025;-73
2022/11/30 09:42:00;;;;;;;20.17;8.30;;;8.10;99.90;;;;;;5055488;28;20028;-73
2022/11/30 09:44:44;;;;;;;18.30;8.63;;;8.10;99.90;;;;;;5036839;28;20085;-73
2022/11/30 09:47:31;;;;;;;16.67;8.32;;;8.20;99.90;;;;;;5054956;28;20472;-73
2022/11/30 09:50:03;;;;;;;21.20;9.25;;;8.20;99.90;;;;;;5054551;28;20028;-73
2022/11/30 09:52:36;;;;;;;16.65;8.15;;;8.20;99.90;;;;;;5054226;28;20075;-73
2022/11/30 09:55:08;;;;;;;20.20;8.70;;;8.40;99.90;;;;;;5036178;28;20514;-73
2022/11/30 09:57:44;;;;;;;17.85;8.65;;;8.40;99.90;;;;;;5036703;28;20480;-73
2022/11/30 10:00:23;;;;;;;21.88;10.18;;;8.30;99.90;;;;;;5054765;28;20027;-73
2022/11/30 10:02:51;;;;;;;21.60;9.95;;;8.40;99.90;;;;;;5037260;28;20112;-73
2022/11/30 10:05:37;;;;;;;21.10;9.75;;;8.50;99.90;;;;;;5054776;28;20472;-73
2022/11/30 10:08:23;;;;;;;21.77;8.82;;;8.50;99.90;;;;;;5013944;28;20044;-73
2022/11/30 10:11:22;;;;;;;19.65;8.40;;;8.50;99.90;;;;;;5054263;28;20025;-74
2022/11/30 10:14:22;;;;;;;18.98;8.77;;;8.60;99.90;;;;;;5036601;28;20035;-74
2022/11/30 10:17:11;;;;;;;21.35;8.60;;;8.60;99.90;;;;;;5054683;28;20430;-74
2022/11/30 10:20:15;;;;;;;22.15;10.13;;;8.70;99.90;;;;;;5054610;28;20025;-74
2022/11/30 10:22:58;;;;;;;19.45;9.68;;;8.70;99.90;;;;;;5055201;28;20376;-74
2022/11/30 10:25:36;;;;;;;16.23;7.50;;;8.70;99.90;;;;;;5037084;28;20033;-74
2022/11/30 10:28:17;;;;;;;19.48;9.15;;;8.90;99.90;;;;;;5037513;28;20123;-74
2022/11/30 10:30:44;;;;;;;18.45;8.98;;;8.90;99.90;;;;;;5057448;28;20104;-74
2022/11/30 10:33:18;;;;;;;18.85;9.00;;;9.00;99.90;;;;;;5040910;28;20025;-74
2022/11/30 10:35:49;;;;;;;17.85;8.75;;;9.10;99.90;;;;;;5040369;28;20438;-74
2022/11/30 10:38:26;;;;;;;20.88;9.27;;;9.00;99.90;;;;;;5058570;28;20081;-73
2022/11/30 10:40:54;;;;;;;23.45;9.13;;;9.10;99.90;;;;;;5058551;28;20028;-74
2022/11/30 10:43:26;;;;;;;20.00;10.18;;;9.00;99.90;;;;;;5040410;28;20399;-74
2022/11/30 10:45:52;;;;;;;23.23;8.90;;;9.10;99.90;;;;;;5058746;28;20460;-74
2022/11/30 10:48:40;;;;;;;23.65;10.68;;;9.20;99.90;;;;;;5039973;28;20039;-74
2022/11/30 10:51:07;;;;;;;22.30;8.93;;;9.20;99.90;;;;;;5057872;28;20072;-73
2022/11/30 10:53:35;;;;;;;16.70;8.20;;;9.20;99.90;;;;;;5040088;28;20032;-74
2022/11/30 10:56:07;;;;;;;18.50;8.82;;;9.20;99.90;;;;;;5057962;28;20028;-74
2022/11/30 10:58:53;;;;;;;18.35;8.88;;;9.30;99.90;;;;;;5057878;28;20048;-74
2022/11/30 11:01:48;;;;;;;22.25;9.55;;;9.30;99.90;;;;;;5058466;28;20021;-74
2022/11/30 11:04:23;;;;;;;22.25;9.15;;;9.40;99.90;;;;;;5023586;28;20083;-74
2022/11/30 11:06:55;;;;;;;21.45;9.57;;;9.40;99.90;;;;;;5040113;28;20021;-74
2022/11/30 11:09:31;;;;;;;20.27;9.60;;;9.50;99.90;;;;;;5039171;28;20028;-74
2022/11/30 11:12:19;;;;;;;23.90;9.40;;;9.50;99.90;;;;;;5039506;28;20021;-74
2022/11/30 11:14:45;;;;;;;18.30;8.63;;;9.50;99.90;;;;;;5057637;28;20437;-74
2022/11/30 11:17:16;;;;;;;19.02;8.77;;;9.50;99.90;;;;;;5057076;28;20021;-74
2022/11/30 11:19:43;;;;;;;20.35;8.65;;;9.50;99.90;;;;;;5039226;28;20036;-74
2022/11/30 11:22:17;;;;;;;18.58;9.13;;;9.60;99.90;;;;;;5039272;28;20534;-74
2022/11/30 11:24:43;;;;;;;23.50;9.25;;;9.40;99.90;;;;;;5039292;28;20029;-74
2022/11/30 11:27:27;;;;;;;18.17;8.57;;;9.40;99.90;;;;;;5038857;28;20484;-74
2022/11/30 11:30:06;;;;;;;17.77;8.73;;;9.40;99.90;;;;;;5038967;28;20068;-74
2022/11/30 11:32:32;;;;;;;21.35;9.57;;;9.40;99.90;;;;;;5057311;28;20475;-73
2022/11/30 11:34:59;;;;;;;18.45;9.20;;;9.30;99.90;;;;;;5039095;28;20009;-73
2022/11/30 11:37:27;;;;;;;20.13;9.25;;;9.30;99.90;;;;;;5056762;28;20026;-74
2022/11/30 11:40:19;;;;;;;18.38;9.10;;;9.30;99.90;;;;;;5056577;28;20021;-74
2022/11/30 11:42:48;;;;;;;21.58;10.10;;;10.10;99.90;;;;;;5038132;28;20033;-74
2022/11/30 11:45:18;;;;;;;20.50;9.57;;;9.20;99.90;;;;;;5056789;28;20507;-74
2022/11/30 11:47:44;;;;;;;19.27;10.05;;;9.20;99.90;;;;;;5038943;28;20017;-74
2022/11/30 11:50:37;;;;;;;19.50;9.48;;;9.30;99.90;;;;;;5057306;28;20032;-75
2022/11/30 11:53:33;;;;;;;21.15;9.05;;;9.40;99.90;;;;;;5058062;28;20036;-75
2022/11/30 11:56:08;;;;;;;20.92;10.13;;;9.80;99.90;;;;;;5057560;28;20021;-75
2022/11/30 11:58:42;;;;;;;21.17;10.10;;;9.80;99.90;;;;;;5057064;28;20475;-75
2022/11/30 12:01:17;;;;;;;21.13;9.82;;;9.80;99.90;;;;;;5039361;28;20096;-75
2022/11/30 12:03:56;;;;;;;20.45;8.65;;;9.80;99.90;;;;;;5039678;28;20032;-75
2022/11/30 12:06:22;;;;;;;22.08;10.23;;;9.90;99.90;;;;;;5039732;28;20022;-75
2022/11/30 12:09:02;;;;;;;19.58;8.82;;;9.80;99.90;;;;;;5039690;28;20133;-75
2022/11/30 12:11:47;;;;;;;20.13;9.48;;;9.80;99.90;;;;;;5038722;28;20025;-75
2022/11/30 12:14:15;;;;;;;20.55;9.77;;;9.80;99.90;;;;;;5039338;28;20014;-75
2022/11/30 12:19:39;;;;;;;23.65;10.13;;;10.00;99.90;;;;;;5446234;22;20083;-76
2022/11/30 12:22:39;;;;;;;21.02;10.48;;;10.10;99.90;;;;;;5057841;28;20021;-75
2022/11/30 12:25:19;;;;;;;22.83;10.60;;;11.00;99.90;;;;;;5056189;28;20422;-77
2022/11/30 12:28:19;;;;;;;22.77;10.00;;;10.30;99.90;;;;;;5055687;28;20502;-77
2022/11/30 12:30:59;;;;;;;19.40;9.10;;;10.30;99.90;;;;;;5056242;28;20028;-77
2022/11/30 12:33:56;;;;;;;20.85;9.18;;;10.40;99.90;;;;;;5037862;28;20021;-75
2022/11/30 12:36:37;;;;;;;19.13;8.80;;;10.50;99.90;;;;;;5025536;28;20495;-75
2022/11/30 12:39:41;;;;;;;16.45;8.38;;;10.50;99.90;;;;;;5037191;28;20438;-76
2022/11/30 12:42:22;;;;;;;17.67;8.88;;;10.60;99.90;;;;;;5043061;28;20049;-76
2022/11/30 12:45:26;;;;;;;20.75;8.82;;;10.70;99.90;;;;;;5055093;28;20029;-76
2022/11/30 12:48:04;;;;;;;19.00;9.07;;;10.80;99.90;;;;;;5037210;28;20387;-76
2022/11/30 12:50:56;;;;;;;20.13;9.40;;;10.90;99.90;;;;;;5054577;28;20023;-76
2022/11/30 12:53:27;;;;;;;19.17;8.70;;;10.90;99.90;;;;;;5036749;28;20108;-77
2022/11/30 12:56:09;;;;;;;15.57;7.95;;;11.10;99.90;;;;;;5036518;28;20029;-76
2022/11/30 12:59:10;;;;;;;16.98;8.10;;;11.10;99.90;;;;;;5054615;28;20418;-76
2022/11/30 13:01:45;;;;;;;17.85;8.10;;;11.00;99.90;;;;;;5036500;28;20419;-77
2022/11/30 13:04:29;;;;;;;17.98;8.02;;;10.90;99.90;;;;;;5036720;28;20033;-76